Carnival Triumph — C6FN5 — position and weather

sailwx.info

Track history (hours):
 
Tides and Currents Weather Stations Pressure Air Temp Water Temp Dewpoint Dewpoint Depression Visibility Wind Speed Wind Dir Waves Ship Positions

Carnival Triumph

Operator: Carnival Cruise Lines

Last reported at 2015-Jul-04 13:06 UTC. Time now 2015-Jul-05 17:35 UTC.
Position N 29°19' W 094°47'.

Type: Ship. MMSI: 308045000.

Date/timePositionNaut miles runAvg speedWind from/ knotsBaromVisibWave heightAir tempDewpointWater temp
2015-Jul-04 13:06N 29°19' W 094°47'  
2015-Jul-01 23:17N 20°44' W 086°50'1318.6
2015-Jul-01 22:33N 20°33' W 086°58'4 4.0
2015-Jul-01 21:33N 20°29' W 086°59'0 0.0
2015-Jul-01 20:30N 20°29' W 086°59'0 0.0
2015-Jul-01 19:33N 20°29' W 086°59'0 0.0
2015-Jul-01 18:33N 20°29' W 086°59'68015.1
2015-Jun-29 21:32N 29°20' W 094°46'2 0.2
2015-Jun-29 13:09N 29°19' W 094°48'67717.5
2015-Jun-27 22:33N 20°32' W 086°58'4 3.8
2015-Jun-27 21:32N 20°29' W 086°59'0 0.0
2015-Jun-27 20:32N 20°29' W 086°59'0 0.0
2015-Jun-27 19:32N 20°29' W 086°59'0 0.0
2015-Jun-27 18:29N 20°29' W 086°59'0 0.0
2015-Jun-27 17:26N 20°29' W 086°59'0 0.0
2015-Jun-27 16:32N 20°29' W 086°59'0 0.0
2015-Jun-27 15:32N 20°29' W 086°59'0 0.0
2015-Jun-27 14:32N 20°29' W 086°59'0 0.0
2015-Jun-27 13:32N 20°29' W 086°59'0 0.0
2015-Jun-27 12:33N 20°29' W 086°59'68014.4
2015-Jun-25 13:18N 29°20' W 094°47'  
Track history (hours):
 
Tides and Currents Weather Stations Pressure Air Temp Water Temp Dewpoint Dewpoint Depression Visibility Wind Speed Wind Dir Waves Ship Positions

Carnival Triumph

Operator: Carnival Cruise Lines

Last reported at 2015-Jul-04 13:06 UTC. Time now 2015-Jul-05 17:35 UTC.
Position N 29°19' W 094°47'.

Type: Ship. MMSI: 308045000.

Date/timePositionNaut miles runAvg speedWind from/ knotsBaromVisibWave heightAir tempDewpointWater temp
2015-Jul-04 13:06N 29°19' W 094°47'  
2015-Jul-01 23:17N 20°44' W 086°50'1318.6
2015-Jul-01 22:33N 20°33' W 086°58'4 4.0
2015-Jul-01 21:33N 20°29' W 086°59'0 0.0
2015-Jul-01 20:30N 20°29' W 086°59'0 0.0
2015-Jul-01 19:33N 20°29' W 086°59'0 0.0
2015-Jul-01 18:33N 20°29' W 086°59'68015.1
2015-Jun-29 21:32N 29°20' W 094°46'2 0.2
2015-Jun-29 13:09N 29°19' W 094°48'67717.5
2015-Jun-27 22:33N 20°32' W 086°58'4 3.8
2015-Jun-27 21:32N 20°29' W 086°59'0 0.0
2015-Jun-27 20:32N 20°29' W 086°59'0 0.0
2015-Jun-27 19:32N 20°29' W 086°59'0 0.0
2015-Jun-27 18:29N 20°29' W 086°59'0 0.0
2015-Jun-27 17:26N 20°29' W 086°59'0 0.0
2015-Jun-27 16:32N 20°29' W 086°59'0 0.0
2015-Jun-27 15:32N 20°29' W 086°59'0 0.0
2015-Jun-27 14:32N 20°29' W 086°59'0 0.0
2015-Jun-27 13:32N 20°29' W 086°59'0 0.0
2015-Jun-27 12:33N 20°29' W 086°59'68014.4
2015-Jun-25 13:18N 29°20' W 094°47'  

Dump ship's entire track history